Bryson City, North Carolina
Current Conditions -  °F | °C
As of 1:35 AM on Sunday 26 Oct 2014 (Local Time) from KRHP Reporting Station
Haze Haze  
Wind Chill: 46°   Ceiling: 400
Heat Index: 46°   Visibility: 2mi
Dew Point: 46°   Wind: 0mph
Humidity: 100%   Direction: NA
Pressure: 30.07"   Gusts: NA
Location:  35.43°N, 83.45°W
Report Text: KRHP 260535Z AUTO 00000KT 2SM BR BKN004 08/08 A3007 RMK AO2 VIS 3/4V5 T00750075
Loading
Personal Weather Stations






























Interactive Weather Map New forecast layout! Learn more

10-Day Weather Forecast

Advertisements
Track Severe Weather on mobile